sensor_id;sensor_type;location;lat;lon;timestamp;temperature;humidity
53208;DHT22;39093;52.788;6.940;2023-11-21T00:00:05;8.50;99.90
53208;DHT22;39093;52.788;6.940;2023-11-21T00:02:37;8.40;99.90
53208;DHT22;39093;52.788;6.940;2023-11-21T00:05:10;8.40;99.90
53208;DHT22;39093;52.788;6.940;2023-11-21T00:07:38;8.50;99.90
53208;DHT22;39093;52.788;6.940;2023-11-21T00:10:05;8.40;99.90
53208;DHT22;39093;52.788;6.940;2023-11-21T00:12:33;8.40;99.90
53208;DHT22;39093;52.788;6.940;2023-11-21T00:15:00;8.40;99.90
53208;DHT22;39093;52.788;6.940;2023-11-21T00:17:28;8.60;99.90
53208;DHT22;39093;52.788;6.940;2023-11-21T00:19:55;8.40;99.90
53208;DHT22;39093;52.788;6.940;2023-11-21T00:22:22;8.40;99.90
53208;DHT22;39093;52.788;6.940;2023-11-21T00:24:49;8.40;99.90
53208;DHT22;39093;52.788;6.940;2023-11-21T00:27:16;8.40;99.90
53208;DHT22;39093;52.788;6.940;2023-11-21T00:29:43;8.40;99.90
53208;DHT22;39093;52.788;6.940;2023-11-21T00:32:10;8.40;99.90
53208;DHT22;39093;52.788;6.940;2023-11-21T00:34:37;8.40;99.90
53208;DHT22;39093;52.788;6.940;2023-11-21T00:37:04;8.40;99.90
53208;DHT22;39093;52.788;6.940;2023-11-21T00:39:31;8.50;99.90
53208;DHT22;39093;52.788;6.940;2023-11-21T00:42:00;8.40;99.90
53208;DHT22;39093;52.788;6.940;2023-11-21T00:44:26;8.40;99.90
53208;DHT22;39093;52.788;6.940;2023-11-21T00:46:53;8.40;99.90
53208;DHT22;39093;52.788;6.940;2023-11-21T00:49:21;8.30;99.90
53208;DHT22;39093;52.788;6.940;2023-11-21T00:51:48;8.40;99.90
53208;DHT22;39093;52.788;6.940;2023-11-21T00:54:15;8.30;99.90
53208;DHT22;39093;52.788;6.940;2023-11-21T00:56:43;8.30;99.90
53208;DHT22;39093;52.788;6.940;2023-11-21T00:59:10;8.40;99.90
53208;DHT22;39093;52.788;6.940;2023-11-21T01:01:37;8.40;99.90
53208;DHT22;39093;52.788;6.940;2023-11-21T01:04:04;8.40;99.90
53208;DHT22;39093;52.788;6.940;2023-11-21T01:06:33;8.40;99.90
53208;DHT22;39093;52.788;6.940;2023-11-21T01:09:00;8.50;99.90
53208;DHT22;39093;52.788;6.940;2023-11-21T01:11:27;8.50;99.90
53208;DHT22;39093;52.788;6.940;2023-11-21T01:13:54;8.40;99.90
53208;DHT22;39093;52.788;6.940;2023-11-21T01:16:21;8.50;99.90
53208;DHT22;39093;52.788;6.940;2023-11-21T01:18:51;8.50;99.90
53208;DHT22;39093;52.788;6.940;2023-11-21T01:21:18;8.50;99.90
53208;DHT22;39093;52.788;6.940;2023-11-21T01:23:45;8.50;99.90
53208;DHT22;39093;52.788;6.940;2023-11-21T01:26:12;8.50;99.90
53208;DHT22;39093;52.788;6.940;2023-11-21T01:28:39;8.50;99.90
53208;DHT22;39093;52.788;6.940;2023-11-21T01:31:06;8.60;99.90
53208;DHT22;39093;52.788;6.940;2023-11-21T01:33:34;8.60;99.90
53208;DHT22;39093;52.788;6.940;2023-11-21T01:36:01;8.60;99.90
53208;DHT22;39093;52.788;6.940;2023-11-21T01:38:27;8.60;99.90
53208;DHT22;39093;52.788;6.940;2023-11-21T01:40:54;8.60;99.90
53208;DHT22;39093;52.788;6.940;2023-11-21T01:43:21;8.60;99.90
53208;DHT22;39093;52.788;6.940;2023-11-21T01:45:48;8.80;99.90
53208;DHT22;39093;52.788;6.940;2023-11-21T01:48:18;8.60;99.90
53208;DHT22;39093;52.788;6.940;2023-11-21T01:50:45;8.70;99.90
53208;DHT22;39093;52.788;6.940;2023-11-21T01:53:12;8.70;99.90
53208;DHT22;39093;52.788;6.940;2023-11-21T01:55:41;8.70;99.90
53208;DHT22;39093;52.788;6.940;2023-11-21T01:58:09;8.70;99.90
53208;DHT22;39093;52.788;6.940;2023-11-21T02:00:37;8.70;99.90
53208;DHT22;39093;52.788;6.940;2023-11-21T02:03:05;8.70;99.90
53208;DHT22;39093;52.788;6.940;2023-11-21T02:05:34;8.60;99.90
53208;DHT22;39093;52.788;6.940;2023-11-21T02:08:01;8.60;99.90
53208;DHT22;39093;52.788;6.940;2023-11-21T02:10:30;8.60;99.90
53208;DHT22;39093;52.788;6.940;2023-11-21T02:12:58;8.70;99.90
53208;DHT22;39093;52.788;6.940;2023-11-21T02:15:25;8.60;99.90
53208;DHT22;39093;52.788;6.940;2023-11-21T02:17:56;8.70;99.90
53208;DHT22;39093;52.788;6.940;2023-11-21T02:20:25;8.70;99.90
53208;DHT22;39093;52.788;6.940;2023-11-21T02:22:57;8.60;99.90
53208;DHT22;39093;52.788;6.940;2023-11-21T02:25:29;8.60;99.90
53208;DHT22;39093;52.788;6.940;2023-11-21T02:27:58;8.60;99.90
53208;DHT22;39093;52.788;6.940;2023-11-21T02:30:25;8.60;99.90
53208;DHT22;39093;52.788;6.940;2023-11-21T02:32:52;8.60;99.90
53208;DHT22;39093;52.788;6.940;2023-11-21T02:35:20;8.60;99.90
53208;DHT22;39093;52.788;6.940;2023-11-21T02:37:48;8.60;99.90
53208;DHT22;39093;52.788;6.940;2023-11-21T02:40:16;8.60;99.90
53208;DHT22;39093;52.788;6.940;2023-11-21T02:42:47;8.60;99.90
53208;DHT22;39093;52.788;6.940;2023-11-21T02:45:15;8.60;99.90
53208;DHT22;39093;52.788;6.940;2023-11-21T02:47:44;8.60;99.90
53208;DHT22;39093;52.788;6.940;2023-11-21T02:50:12;9.00;99.90
53208;DHT22;39093;52.788;6.940;2023-11-21T02:52:39;8.60;99.90
53208;DHT22;39093;52.788;6.940;2023-11-21T02:55:07;8.60;99.90
53208;DHT22;39093;52.788;6.940;2023-11-21T02:57:34;8.60;99.90
53208;DHT22;39093;52.788;6.940;2023-11-21T03:00:01;8.60;99.90
53208;DHT22;39093;52.788;6.940;2023-11-21T03:02:28;8.60;99.90
53208;DHT22;39093;52.788;6.940;2023-11-21T03:04:55;8.60;99.90
53208;DHT22;39093;52.788;6.940;2023-11-21T03:07:23;8.60;99.90
53208;DHT22;39093;52.788;6.940;2023-11-21T03:09:50;8.60;99.90
53208;DHT22;39093;52.788;6.940;2023-11-21T03:12:17;8.80;99.90
53208;DHT22;39093;52.788;6.940;2023-11-21T03:14:44;8.60;99.90
53208;DHT22;39093;52.788;6.940;2023-11-21T03:17:11;8.60;99.90
53208;DHT22;39093;52.788;6.940;2023-11-21T03:19:38;8.60;99.90
53208;DHT22;39093;52.788;6.940;2023-11-21T03:22:05;8.60;99.90
53208;DHT22;39093;52.788;6.940;2023-11-21T03:24:32;8.60;99.90
53208;DHT22;39093;52.788;6.940;2023-11-21T03:26:59;8.60;99.90
53208;DHT22;39093;52.788;6.940;2023-11-21T03:29:26;8.60;99.90
53208;DHT22;39093;52.788;6.940;2023-11-21T03:31:53;8.50;99.90
53208;DHT22;39093;52.788;6.940;2023-11-21T03:34:26;8.50;99.90
53208;DHT22;39093;52.788;6.940;2023-11-21T03:36:53;8.50;99.90
53208;DHT22;39093;52.788;6.940;2023-11-21T03:39:20;8.50;99.90
53208;DHT22;39093;52.788;6.940;2023-11-21T03:41:49;8.50;99.90
53208;DHT22;39093;52.788;6.940;2023-11-21T03:44:16;8.50;99.90
53208;DHT22;39093;52.788;6.940;2023-11-21T03:46:44;8.50;99.90
53208;DHT22;39093;52.788;6.940;2023-11-21T03:49:11;8.50;99.90
53208;DHT22;39093;52.788;6.940;2023-11-21T03:51:38;8.50;99.90
53208;DHT22;39093;52.788;6.940;2023-11-21T03:54:05;8.50;99.90
53208;DHT22;39093;52.788;6.940;2023-11-21T03:56:32;8.50;99.90
53208;DHT22;39093;52.788;6.940;2023-11-21T03:58:59;8.50;99.90
53208;DHT22;39093;52.788;6.940;2023-11-21T04:01:26;8.50;99.90
53208;DHT22;39093;52.788;6.940;2023-11-21T04:03:53;8.50;99.90
53208;DHT22;39093;52.788;6.940;2023-11-21T04:06:20;8.50;99.90
53208;DHT22;39093;52.788;6.940;2023-11-21T04:08:47;8.50;99.90
53208;DHT22;39093;52.788;6.940;2023-11-21T04:11:14;8.50;99.90
53208;DHT22;39093;52.788;6.940;2023-11-21T04:13:42;8.50;99.90
53208;DHT22;39093;52.788;6.940;2023-11-21T04:16:09;8.40;99.90
53208;DHT22;39093;52.788;6.940;2023-11-21T04:18:36;8.60;99.90
53208;DHT22;39093;52.788;6.940;2023-11-21T04:21:08;8.40;99.90
53208;DHT22;39093;52.788;6.940;2023-11-21T04:23:35;8.50;99.90
53208;DHT22;39093;52.788;6.940;2023-11-21T04:26:02;8.50;99.90
53208;DHT22;39093;52.788;6.940;2023-11-21T04:28:29;8.40;99.90
53208;DHT22;39093;52.788;6.940;2023-11-21T04:30:57;8.40;99.90
53208;DHT22;39093;52.788;6.940;2023-11-21T04:33:24;8.40;99.90
53208;DHT22;39093;52.788;6.940;2023-11-21T04:35:52;8.30;99.90
53208;DHT22;39093;52.788;6.940;2023-11-21T04:38:19;8.30;99.90
53208;DHT22;39093;52.788;6.940;2023-11-21T04:40:46;8.30;99.90
53208;DHT22;39093;52.788;6.940;2023-11-21T04:43:13;8.40;99.90
53208;DHT22;39093;52.788;6.940;2023-11-21T04:45:40;8.40;99.90
53208;DHT22;39093;52.788;6.940;2023-11-21T04:48:08;8.40;99.90
53208;DHT22;39093;52.788;6.940;2023-11-21T04:50:35;8.40;99.90
53208;DHT22;39093;52.788;6.940;2023-11-21T04:53:02;8.40;99.90
53208;DHT22;39093;52.788;6.940;2023-11-21T04:55:29;8.40;99.90
53208;DHT22;39093;52.788;6.940;2023-11-21T04:57:56;8.40;99.90
53208;DHT22;39093;52.788;6.940;2023-11-21T05:00:23;8.40;99.90
53208;DHT22;39093;52.788;6.940;2023-11-21T05:02:50;8.40;99.90
53208;DHT22;39093;52.788;6.940;2023-11-21T05:05:19;8.40;99.90
53208;DHT22;39093;52.788;6.940;2023-11-21T05:07:46;8.40;99.90
53208;DHT22;39093;52.788;6.940;2023-11-21T05:10:15;8.70;99.90
53208;DHT22;39093;52.788;6.940;2023-11-21T05:12:42;8.50;99.90
53208;DHT22;39093;52.788;6.940;2023-11-21T05:15:13;8.50;99.90
53208;DHT22;39093;52.788;6.940;2023-11-21T05:17:41;8.50;99.90
53208;DHT22;39093;52.788;6.940;2023-11-21T05:20:14;8.60;99.90
53208;DHT22;39093;52.788;6.940;2023-11-21T05:22:45;8.50;99.90
53208;DHT22;39093;52.788;6.940;2023-11-21T05:25:12;8.50;99.90
53208;DHT22;39093;52.788;6.940;2023-11-21T05:27:39;8.50;99.90
53208;DHT22;39093;52.788;6.940;2023-11-21T05:30:06;8.50;99.90
53208;DHT22;39093;52.788;6.940;2023-11-21T05:32:35;8.50;99.90
53208;DHT22;39093;52.788;6.940;2023-11-21T05:35:03;8.50;99.90
53208;DHT22;39093;52.788;6.940;2023-11-21T05:37:30;8.50;99.90
53208;DHT22;39093;52.788;6.940;2023-11-21T05:39:57;8.50;99.90
53208;DHT22;39093;52.788;6.940;2023-11-21T05:42:24;8.50;99.90
53208;DHT22;39093;52.788;6.940;2023-11-21T05:44:51;8.50;99.90
53208;DHT22;39093;52.788;6.940;2023-11-21T05:47:18;8.50;99.90
53208;DHT22;39093;52.788;6.940;2023-11-21T05:49:45;8.60;99.90
53208;DHT22;39093;52.788;6.940;2023-11-21T05:52:17;8.50;99.90
53208;DHT22;39093;52.788;6.940;2023-11-21T05:54:44;8.50;99.90
53208;DHT22;39093;52.788;6.940;2023-11-21T05:57:11;8.50;99.90
53208;DHT22;39093;52.788;6.940;2023-11-21T05:59:38;8.40;99.90
53208;DHT22;39093;52.788;6.940;2023-11-21T06:02:05;8.50;99.90
53208;DHT22;39093;52.788;6.940;2023-11-21T06:04:34;8.50;99.90
53208;DHT22;39093;52.788;6.940;2023-11-21T06:07:01;8.50;99.90
53208;DHT22;39093;52.788;6.940;2023-11-21T06:09:28;8.50;99.90
53208;DHT22;39093;52.788;6.940;2023-11-21T06:11:55;8.50;99.90
53208;DHT22;39093;52.788;6.940;2023-11-21T06:14:22;8.50;99.90
53208;DHT22;39093;52.788;6.940;2023-11-21T06:16:49;8.60;99.90
53208;DHT22;39093;52.788;6.940;2023-11-21T06:19:18;8.50;99.90
53208;DHT22;39093;52.788;6.940;2023-11-21T06:21:46;8.60;99.90
53208;DHT22;39093;52.788;6.940;2023-11-21T06:24:14;8.50;99.90
53208;DHT22;39093;52.788;6.940;2023-11-21T06:26:42;8.50;99.90
53208;DHT22;39093;52.788;6.940;2023-11-21T06:29:09;8.50;99.90
53208;DHT22;39093;52.788;6.940;2023-11-21T06:31:36;8.50;99.90
53208;DHT22;39093;52.788;6.940;2023-11-21T06:34:03;8.50;99.90
53208;DHT22;39093;52.788;6.940;2023-11-21T06:36:30;8.50;99.90
53208;DHT22;39093;52.788;6.940;2023-11-21T06:38:57;8.60;99.90
53208;DHT22;39093;52.788;6.940;2023-11-21T06:41:24;8.50;99.90
53208;DHT22;39093;52.788;6.940;2023-11-21T06:43:51;8.50;99.90
53208;DHT22;39093;52.788;6.940;2023-11-21T06:46:18;8.50;99.90
53208;DHT22;39093;52.788;6.940;2023-11-21T06:48:46;8.50;99.90
53208;DHT22;39093;52.788;6.940;2023-11-21T06:51:15;8.50;99.90
53208;DHT22;39093;52.788;6.940;2023-11-21T06:53:42;8.70;99.90
53208;DHT22;39093;52.788;6.940;2023-11-21T06:56:19;8.50;99.90
53208;DHT22;39093;52.788;6.940;2023-11-21T06:58:46;8.50;99.90
53208;DHT22;39093;52.788;6.940;2023-11-21T07:01:13;8.70;99.90
53208;DHT22;39093;52.788;6.940;2023-11-21T07:03:41;8.60;99.90
53208;DHT22;39093;52.788;6.940;2023-11-21T07:06:08;8.60;99.90
53208;DHT22;39093;52.788;6.940;2023-11-21T07:08:38;8.70;99.90
53208;DHT22;39093;52.788;6.940;2023-11-21T07:11:05;8.70;99.90
53208;DHT22;39093;52.788;6.940;2023-11-21T07:13:32;8.60;99.90
53208;DHT22;39093;52.788;6.940;2023-11-21T07:15:59;8.60;99.90
53208;DHT22;39093;52.788;6.940;2023-11-21T07:18:26;8.60;99.90
53208;DHT22;39093;52.788;6.940;2023-11-21T07:20:54;8.60;99.90
53208;DHT22;39093;52.788;6.940;2023-11-21T07:23:21;8.50;99.90
53208;DHT22;39093;52.788;6.940;2023-11-21T07:25:49;8.60;99.90
53208;DHT22;39093;52.788;6.940;2023-11-21T07:28:16;8.60;99.90
53208;DHT22;39093;52.788;6.940;2023-11-21T07:30:43;8.70;99.90
53208;DHT22;39093;52.788;6.940;2023-11-21T07:33:10;8.60;99.90
53208;DHT22;39093;52.788;6.940;2023-11-21T07:35:37;8.60;99.90
53208;DHT22;39093;52.788;6.940;2023-11-21T07:38:04;8.60;99.90
53208;DHT22;39093;52.788;6.940;2023-11-21T07:40:31;8.60;99.90
53208;DHT22;39093;52.788;6.940;2023-11-21T07:42:58;8.70;99.90
53208;DHT22;39093;52.788;6.940;2023-11-21T07:45:26;8.60;99.90
53208;DHT22;39093;52.788;6.940;2023-11-21T07:47:55;8.60;99.90
53208;DHT22;39093;52.788;6.940;2023-11-21T07:50:23;8.70;99.90
53208;DHT22;39093;52.788;6.940;2023-11-21T07:52:50;8.90;99.90
53208;DHT22;39093;52.788;6.940;2023-11-21T07:55:17;8.80;99.90
53208;DHT22;39093;52.788;6.940;2023-11-21T07:57:44;8.80;99.90
53208;DHT22;39093;52.788;6.940;2023-11-21T08:00:12;8.70;99.90
53208;DHT22;39093;52.788;6.940;2023-11-21T08:02:40;8.80;99.90
53208;DHT22;39093;52.788;6.940;2023-11-21T08:05:09;8.70;99.90
53208;DHT22;39093;52.788;6.940;2023-11-21T08:07:50;8.80;99.90
53208;DHT22;39093;52.788;6.940;2023-11-21T08:10:17;8.80;99.90
53208;DHT22;39093;52.788;6.940;2023-11-21T08:12:44;8.80;99.90
53208;DHT22;39093;52.788;6.940;2023-11-21T08:15:11;8.80;99.90
53208;DHT22;39093;52.788;6.940;2023-11-21T08:17:38;8.80;99.90
53208;DHT22;39093;52.788;6.940;2023-11-21T08:20:06;8.80;99.90
53208;DHT22;39093;52.788;6.940;2023-11-21T08:22:35;8.90;99.90
53208;DHT22;39093;52.788;6.940;2023-11-21T08:25:03;8.90;99.90
53208;DHT22;39093;52.788;6.940;2023-11-21T08:27:32;8.90;99.90
53208;DHT22;39093;52.788;6.940;2023-11-21T08:30:00;8.90;99.90
53208;DHT22;39093;52.788;6.940;2023-11-21T08:32:27;9.00;99.90
53208;DHT22;39093;52.788;6.940;2023-11-21T08:34:54;9.00;99.90
53208;DHT22;39093;52.788;6.940;2023-11-21T08:37:21;9.00;99.90
53208;DHT22;39093;52.788;6.940;2023-11-21T08:39:48;9.00;99.90
53208;DHT22;39093;52.788;6.940;2023-11-21T08:42:15;9.00;99.90
53208;DHT22;39093;52.788;6.940;2023-11-21T08:44:42;9.00;99.90
53208;DHT22;39093;52.788;6.940;2023-11-21T08:47:09;9.10;99.90
53208;DHT22;39093;52.788;6.940;2023-11-21T08:49:36;9.10;99.90
53208;DHT22;39093;52.788;6.940;2023-11-21T08:52:03;9.00;99.90
53208;DHT22;39093;52.788;6.940;2023-11-21T08:54:31;9.10;99.90
53208;DHT22;39093;52.788;6.940;2023-11-21T08:56:58;9.00;99.90
53208;DHT22;39093;52.788;6.940;2023-11-21T08:59:25;8.90;99.90
53208;DHT22;39093;52.788;6.940;2023-11-21T09:01:53;9.10;99.90
53208;DHT22;39093;52.788;6.940;2023-11-21T09:04:20;9.00;99.90
53208;DHT22;39093;52.788;6.940;2023-11-21T09:06:47;9.00;99.90
53208;DHT22;39093;52.788;6.940;2023-11-21T09:09:14;9.00;99.90
53208;DHT22;39093;52.788;6.940;2023-11-21T09:11:41;9.00;99.90
53208;DHT22;39093;52.788;6.940;2023-11-21T09:14:08;8.90;99.90
53208;DHT22;39093;52.788;6.940;2023-11-21T09:16:36;8.90;99.90
53208;DHT22;39093;52.788;6.940;2023-11-21T09:19:03;8.90;99.90
53208;DHT22;39093;52.788;6.940;2023-11-21T09:21:32;8.90;99.90
53208;DHT22;39093;52.788;6.940;2023-11-21T09:24:02;8.80;99.90
53208;DHT22;39093;52.788;6.940;2023-11-21T09:26:29;8.80;99.90
53208;DHT22;39093;52.788;6.940;2023-11-21T09:28:56;8.80;99.90
53208;DHT22;39093;52.788;6.940;2023-11-21T09:31:23;8.80;99.90
53208;DHT22;39093;52.788;6.940;2023-11-21T09:33:51;8.80;99.90
53208;DHT22;39093;52.788;6.940;2023-11-21T09:36:18;8.80;99.90
53208;DHT22;39093;52.788;6.940;2023-11-21T09:38:45;8.70;99.90
53208;DHT22;39093;52.788;6.940;2023-11-21T09:41:23;8.80;99.90
53208;DHT22;39093;52.788;6.940;2023-11-21T09:43:57;8.70;99.90
53208;DHT22;39093;52.788;6.940;2023-11-21T09:46:28;8.70;99.90
53208;DHT22;39093;52.788;6.940;2023-11-21T09:48:58;8.70;99.90
53208;DHT22;39093;52.788;6.940;2023-11-21T09:51:29;8.70;99.90
53208;DHT22;39093;52.788;6.940;2023-11-21T09:54:02;8.60;99.90
53208;DHT22;39093;52.788;6.940;2023-11-21T09:56:33;8.70;99.90
53208;DHT22;39093;52.788;6.940;2023-11-21T09:59:00;8.60;99.90
53208;DHT22;39093;52.788;6.940;2023-11-21T10:01:33;8.70;99.90
53208;DHT22;39093;52.788;6.940;2023-11-21T10:04:02;8.60;99.90
53208;DHT22;39093;52.788;6.940;2023-11-21T10:06:30;8.70;99.90
53208;DHT22;39093;52.788;6.940;2023-11-21T10:08:59;8.70;99.90
53208;DHT22;39093;52.788;6.940;2023-11-21T10:11:27;8.60;99.90
53208;DHT22;39093;52.788;6.940;2023-11-21T10:13:59;8.60;99.90
53208;DHT22;39093;52.788;6.940;2023-11-21T10:16:28;8.70;99.90
53208;DHT22;39093;52.788;6.940;2023-11-21T10:18:56;8.70;99.90
53208;DHT22;39093;52.788;6.940;2023-11-21T10:21:38;8.70;99.90
53208;DHT22;39093;52.788;6.940;2023-11-21T10:24:14;8.70;99.90
53208;DHT22;39093;52.788;6.940;2023-11-21T10:26:42;8.80;99.90
53208;DHT22;39093;52.788;6.940;2023-11-21T10:29:19;9.00;99.90
53208;DHT22;39093;52.788;6.940;2023-11-21T10:31:51;8.70;99.90
53208;DHT22;39093;52.788;6.940;2023-11-21T10:34:21;8.70;99.90
53208;DHT22;39093;52.788;6.940;2023-11-21T10:36:48;8.70;99.90
53208;DHT22;39093;52.788;6.940;2023-11-21T10:39:20;8.90;99.90
53208;DHT22;39093;52.788;6.940;2023-11-21T10:41:48;8.80;99.90
53208;DHT22;39093;52.788;6.940;2023-11-21T10:44:16;8.90;99.90
53208;DHT22;39093;52.788;6.940;2023-11-21T10:46:52;8.80;99.90
53208;DHT22;39093;52.788;6.940;2023-11-21T10:49:24;8.90;99.90
53208;DHT22;39093;52.788;6.940;2023-11-21T10:51:53;8.90;99.90
53208;DHT22;39093;52.788;6.940;2023-11-21T10:54:21;9.00;99.90
53208;DHT22;39093;52.788;6.940;2023-11-21T10:56:50;8.90;99.90
53208;DHT22;39093;52.788;6.940;2023-11-21T10:59:18;8.90;99.90
53208;DHT22;39093;52.788;6.940;2023-11-21T11:01:45;9.00;99.90
53208;DHT22;39093;52.788;6.940;2023-11-21T11:04:14;8.90;99.90
53208;DHT22;39093;52.788;6.940;2023-11-21T11:06:43;9.00;99.90
53208;DHT22;39093;52.788;6.940;2023-11-21T11:09:13;9.10;99.90
53208;DHT22;39093;52.788;6.940;2023-11-21T11:11:40;9.00;99.90
53208;DHT22;39093;52.788;6.940;2023-11-21T11:14:14;8.90;99.90
53208;DHT22;39093;52.788;6.940;2023-11-21T11:16:41;9.00;99.90
53208;DHT22;39093;52.788;6.940;2023-11-21T11:19:10;9.00;99.90
53208;DHT22;39093;52.788;6.940;2023-11-21T11:38:21;8.90;99.90
53208;DHT22;39093;52.788;6.940;2023-11-21T11:40:53;9.00;99.90
53208;DHT22;39093;52.788;6.940;2023-11-21T11:43:26;8.90;99.90
53208;DHT22;39093;52.788;6.940;2023-11-21T11:46:02;9.00;99.90
53208;DHT22;39093;52.788;6.940;2023-11-21T11:48:37;9.00;99.90
53208;DHT22;39093;52.788;6.940;2023-11-21T11:51:13;8.90;99.90
53208;DHT22;39093;52.788;6.940;2023-11-21T11:53:49;9.00;99.90
53208;DHT22;39093;52.788;6.940;2023-11-21T11:56:25;9.00;99.90
53208;DHT22;39093;52.788;6.940;2023-11-21T11:58:54;9.10;99.90
53208;DHT22;39093;52.788;6.940;2023-11-21T12:01:22;9.10;99.90
53208;DHT22;39093;52.788;6.940;2023-11-21T12:06:42;9.20;99.90
53208;DHT22;39093;52.788;6.940;2023-11-21T12:09:22;9.30;99.90
53208;DHT22;39093;52.788;6.940;2023-11-21T12:11:50;9.20;99.90
53208;DHT22;39093;52.788;6.940;2023-11-21T12:14:17;9.10;99.90
53208;DHT22;39093;52.788;6.940;2023-11-21T12:16:45;9.00;99.90
53208;DHT22;39093;52.788;6.940;2023-11-21T12:19:12;9.10;99.90
53208;DHT22;39093;52.788;6.940;2023-11-21T12:21:42;9.10;99.90
53208;DHT22;39093;52.788;6.940;2023-11-21T12:24:10;9.10;99.90
53208;DHT22;39093;52.788;6.940;2023-11-21T12:26:41;9.10;99.90
53208;DHT22;39093;52.788;6.940;2023-11-21T12:29:08;9.00;99.90
53208;DHT22;39093;52.788;6.940;2023-11-21T12:31:35;9.00;99.90
53208;DHT22;39093;52.788;6.940;2023-11-21T12:34:03;9.00;99.90
53208;DHT22;39093;52.788;6.940;2023-11-21T12:36:31;9.00;99.90
53208;DHT22;39093;52.788;6.940;2023-11-21T12:38:58;9.00;99.90
53208;DHT22;39093;52.788;6.940;2023-11-21T12:41:25;9.00;99.90
53208;DHT22;39093;52.788;6.940;2023-11-21T12:43:52;8.90;99.90
53208;DHT22;39093;52.788;6.940;2023-11-21T12:46:19;9.00;99.90
53208;DHT22;39093;52.788;6.940;2023-11-21T12:48:47;9.00;99.90
53208;DHT22;39093;52.788;6.940;2023-11-21T12:51:15;9.00;99.90
53208;DHT22;39093;52.788;6.940;2023-11-21T12:53:44;9.00;99.90
53208;DHT22;39093;52.788;6.940;2023-11-21T12:56:12;9.00;99.90
53208;DHT22;39093;52.788;6.940;2023-11-21T12:58:39;9.10;99.90
53208;DHT22;39093;52.788;6.940;2023-11-21T13:01:08;9.10;99.90
53208;DHT22;39093;52.788;6.940;2023-11-21T13:03:39;9.10;99.90
53208;DHT22;39093;52.788;6.940;2023-11-21T13:06:07;9.10;99.90
53208;DHT22;39093;52.788;6.940;2023-11-21T13:08:34;9.00;99.90
53208;DHT22;39093;52.788;6.940;2023-11-21T13:11:01;9.00;99.90
53208;DHT22;39093;52.788;6.940;2023-11-21T13:13:29;9.00;99.90
53208;DHT22;39093;52.788;6.940;2023-11-21T13:16:00;8.90;99.90
53208;DHT22;39093;52.788;6.940;2023-11-21T13:18:28;9.00;99.90
53208;DHT22;39093;52.788;6.940;2023-11-21T13:21:00;8.90;99.90
53208;DHT22;39093;52.788;6.940;2023-11-21T13:23:28;8.90;99.90
53208;DHT22;39093;52.788;6.940;2023-11-21T13:25:58;8.90;99.90
53208;DHT22;39093;52.788;6.940;2023-11-21T13:28:33;9.20;99.90
53208;DHT22;39093;52.788;6.940;2023-11-21T13:31:02;9.10;99.90
53208;DHT22;39093;52.788;6.940;2023-11-21T13:33:38;9.00;99.90
53208;DHT22;39093;52.788;6.940;2023-11-21T13:36:06;9.00;99.90
53208;DHT22;39093;52.788;6.940;2023-11-21T13:38:37;9.00;99.90
53208;DHT22;39093;52.788;6.940;2023-11-21T13:41:09;8.90;99.90
53208;DHT22;39093;52.788;6.940;2023-11-21T13:43:39;9.00;99.90
53208;DHT22;39093;52.788;6.940;2023-11-21T13:46:06;8.80;99.90
53208;DHT22;39093;52.788;6.940;2023-11-21T13:48:40;8.90;99.90
53208;DHT22;39093;52.788;6.940;2023-11-21T13:51:13;8.80;99.90
53208;DHT22;39093;52.788;6.940;2023-11-21T13:53:48;8.80;99.90
53208;DHT22;39093;52.788;6.940;2023-11-21T13:56:17;8.70;99.90
53208;DHT22;39093;52.788;6.940;2023-11-21T13:58:51;8.70;99.90
53208;DHT22;39093;52.788;6.940;2023-11-21T14:01:21;8.70;99.90
53208;DHT22;39093;52.788;6.940;2023-11-21T14:04:08;8.60;99.90
53208;DHT22;39093;52.788;6.940;2023-11-21T14:06:50;8.50;99.90
53208;DHT22;39093;52.788;6.940;2023-11-21T14:09:21;8.40;99.90
53208;DHT22;39093;52.788;6.940;2023-11-21T14:12:02;8.40;99.90
53208;DHT22;39093;52.788;6.940;2023-11-21T14:14:33;8.50;99.90
53208;DHT22;39093;52.788;6.940;2023-11-21T14:17:00;8.50;99.90
53208;DHT22;39093;52.788;6.940;2023-11-21T14:19:33;8.60;99.90
53208;DHT22;39093;52.788;6.940;2023-11-21T14:22:03;8.60;99.90
53208;DHT22;39093;52.788;6.940;2023-11-21T14:24:30;8.60;99.90
53208;DHT22;39093;52.788;6.940;2023-11-21T14:26:59;8.70;99.90
53208;DHT22;39093;52.788;6.940;2023-11-21T14:29:26;8.50;99.90
53208;DHT22;39093;52.788;6.940;2023-11-21T14:31:54;8.60;99.90
53208;DHT22;39093;52.788;6.940;2023-11-21T14:34:24;8.50;99.90
53208;DHT22;39093;52.788;6.940;2023-11-21T14:36:55;8.40;99.90
53208;DHT22;39093;52.788;6.940;2023-11-21T14:39:23;8.50;99.90
53208;DHT22;39093;52.788;6.940;2023-11-21T14:41:54;8.40;99.90
53208;DHT22;39093;52.788;6.940;2023-11-21T14:44:22;8.50;99.90
53208;DHT22;39093;52.788;6.940;2023-11-21T14:46:53;8.30;99.90
53208;DHT22;39093;52.788;6.940;2023-11-21T14:49:24;8.30;99.90
53208;DHT22;39093;52.788;6.940;2023-11-21T14:51:55;8.40;99.90
53208;DHT22;39093;52.788;6.940;2023-11-21T14:54:34;8.30;99.90
53208;DHT22;39093;52.788;6.940;2023-11-21T14:57:12;8.30;99.90
53208;DHT22;39093;52.788;6.940;2023-11-21T14:59:47;8.30;99.90
53208;DHT22;39093;52.788;6.940;2023-11-21T15:02:19;8.20;99.90
53208;DHT22;39093;52.788;6.940;2023-11-21T15:05:10;8.30;99.90
53208;DHT22;39093;52.788;6.940;2023-11-21T15:07:45;8.20;99.90
53208;DHT22;39093;52.788;6.940;2023-11-21T15:10:13;8.20;99.90
53208;DHT22;39093;52.788;6.940;2023-11-21T15:12:42;8.10;99.90
53208;DHT22;39093;52.788;6.940;2023-11-21T15:15:11;8.20;99.90
53208;DHT22;39093;52.788;6.940;2023-11-21T15:17:41;8.10;99.90
53208;DHT22;39093;52.788;6.940;2023-11-21T15:20:11;8.10;99.90
53208;DHT22;39093;52.788;6.940;2023-11-21T15:22:45;8.00;99.90
53208;DHT22;39093;52.788;6.940;2023-11-21T15:25:13;8.00;99.90
53208;DHT22;39093;52.788;6.940;2023-11-21T15:27:43;8.00;99.90
53208;DHT22;39093;52.788;6.940;2023-11-21T15:30:10;8.00;99.90
53208;DHT22;39093;52.788;6.940;2023-11-21T15:32:37;8.00;99.90
53208;DHT22;39093;52.788;6.940;2023-11-21T15:35:06;8.00;99.90
53208;DHT22;39093;52.788;6.940;2023-11-21T15:37:36;8.00;99.90
53208;DHT22;39093;52.788;6.940;2023-11-21T15:40:03;8.00;99.90
53208;DHT22;39093;52.788;6.940;2023-11-21T15:42:35;7.90;99.90
53208;DHT22;39093;52.788;6.940;2023-11-21T15:45:04;7.90;99.90
53208;DHT22;39093;52.788;6.940;2023-11-21T15:47:34;7.90;99.90
53208;DHT22;39093;52.788;6.940;2023-11-21T15:50:03;7.80;99.90
53208;DHT22;39093;52.788;6.940;2023-11-21T15:52:31;7.80;99.90
53208;DHT22;39093;52.788;6.940;2023-11-21T15:54:58;7.80;99.90
53208;DHT22;39093;52.788;6.940;2023-11-21T15:57:25;7.70;99.90
53208;DHT22;39093;52.788;6.940;2023-11-21T15:59:51;7.70;99.90
53208;DHT22;39093;52.788;6.940;2023-11-21T16:02:19;7.70;99.90
53208;DHT22;39093;52.788;6.940;2023-11-21T16:04:46;7.70;99.90
53208;DHT22;39093;52.788;6.940;2023-11-21T16:07:13;7.70;99.90
53208;DHT22;39093;52.788;6.940;2023-11-21T16:09:40;7.70;99.90
53208;DHT22;39093;52.788;6.940;2023-11-21T16:12:10;7.70;99.90